Laredo, TX

5:48 AM CDT on July 29, 2014 (GMT -0500)
Laredo International (KLRD) Elev 509 ft | 27.54 °N, 99.46 °W | Change Station
Active Advisory: Special Statement

Current weather conditions updated 52 minutes ago

Clear
Clear
80 °F
Feels Like 80 °F
N
7
Wind Variable Wind from SE

Today is forecast to be nearly the same temperature as yesterday.

Today
High -- | Low -- °F
--% Chance of Precip.
Yesterday
High -- | Low -- °F
Precip. -- in
6:59 AM 8:28 PM
Waxing Crescent, 6% visible
Pressure 30.02 in
Visibility 10.0 miles
Clouds Clear
Dew Point 70 °F
Humidity 72%
Rainfall 0.00 in
Snow Depth Not available.
UV 0 out of 12
Pollen 7.50 out of 12
Ozone Good
PM2.5 Moderate
Flu Activity Not available.
METAR KLRD 290956Z AUTO 13006KT 10SM CLR 27/21 A3006 RMK AO2 T02660211 SLP165

More Conditions Fewer Conditions

Pressure 30.02 in
Visibility 10.0 miles
Clouds Clear
Dew Point 70 °F
Humidity 72%
Rainfall 0.00 in
Snow Depth Not available.
UV 0 out of 12
Pollen 7.50 out of 12
Ozone Good
PM2.5 Moderate
Flu Activity Not available.
METAR KLRD 290956Z AUTO 13006KT 10SM CLR 27/21 A3006 RMK AO2 T02660211 SLP165

More Conditions Fewer Conditions

10-Day Weather Forecast

Almanac

Astronomy

Jul. 29, 2014 Rise Set
Actual Time 6:59 AM CDT 8:28 PM CDT
Civil Twilight 6:34 AM CDT 8:53 PM CDT
Nautical Twilight 6:03 AM CDT 9:24 PM CDT
Astronomical Twilight 5:32 AM CDT 9:55 PM CDT
Moon 9:19 AM CDT 10:02 PM CDT
Length of Visible Light 14h 19m
Length of Day
13h 29m
Tomorrow will be 1m 10s shorter.
Waxing Crescent, 6% of the Moon is Illuminated
Today
Waxing Crescent
Aug 3
First Quarter
Aug 10
Full
Aug 17
Last Quarter
Aug 25
New

Today's Extremes

State Highs State Lows

Community

WunderPhotos

Upload Photos

1,738,683 photos uploaded!

Nearby

Air Quality

  Air Quality AQ Index Pollutant
Yesterday Moderate
PM2.5
Yesterday Good
OZONE
Current Moderate
PM2.5
Current Good
OZONE
Tuesday Good
PM10
Tuesday Good
OZONE
Wednesday Good
PM10
Wednesday Good
OZONE
Thursday Good
PM10
Thursday Good
OZONE

Snow Depth

Station Depth Elevation
No new snow has been reported.

Earthquake Activity

City Distance Mag. Time & Date
No recent earthquake activity has been reported nearby.
Minimum magnitude displayed is 2.5.

Coastal Water Temperatures

Place Temperature
No Stations Reporting

Nearby Weather Stations

Station Location Temp. Heat Index Dew Point Humidity Wind Precip. Elev Updated Type
Del Mar C, Laredo, TX 78.4 °F 81 °F 72 °F 81% ESE  at  2.0 mph 0.00 in / hr 489 ft 5:48 AM CDT Rapid Fire
Werner Ent. Laredo, Laredo, TX 76.9 °F 78 °F 70 °F 79% East  at  1.0 mph 0.00 in / hr 694 ft 5:34 AM CDT Normal

Show More Stations Show Fewer Stations